sensor_id;sensor_type;location;lat;lon;timestamp;pressure;altitude;pressure_sealevel;temperature;humidity
70011;BME280;59543;37.950;-122.338;2022-07-15T00:02:14;101174.72;;;23.83;44.58
70011;BME280;59543;37.950;-122.338;2022-07-15T00:04:40;101176.31;;;23.65;44.63
70011;BME280;59543;37.950;-122.338;2022-07-15T00:07:06;101175.75;;;23.32;45.05
70011;BME280;59543;37.950;-122.338;2022-07-15T00:09:34;101180.31;;;23.13;45.99
70011;BME280;59543;37.950;-122.338;2022-07-15T00:12:19;101178.97;;;23.22;45.59
70011;BME280;59543;37.950;-122.338;2022-07-15T00:14:45;101181.94;;;22.82;45.32
70011;BME280;59543;37.950;-122.338;2022-07-15T00:17:11;101197.91;;;22.98;46.21
70011;BME280;59543;37.950;-122.338;2022-07-15T00:19:37;101179.03;;;23.15;45.30
70011;BME280;59543;37.950;-122.338;2022-07-15T00:22:04;101176.63;;;23.25;45.16
70011;BME280;59543;37.950;-122.338;2022-07-15T00:24:30;101177.38;;;23.39;45.16
70011;BME280;59543;37.950;-122.338;2022-07-15T00:26:56;101166.19;;;23.09;45.33
70011;BME280;59543;37.950;-122.338;2022-07-15T00:29:23;101171.16;;;22.87;45.98
70011;BME280;59543;37.950;-122.338;2022-07-15T00:31:49;101168.47;;;22.80;46.10
70011;BME280;59543;37.950;-122.338;2022-07-15T00:34:15;101171.56;;;22.91;46.34
70011;BME280;59543;37.950;-122.338;2022-07-15T00:36:42;101176.06;;;22.78;46.69
70011;BME280;59543;37.950;-122.338;2022-07-15T00:39:09;101180.34;;;22.61;45.94
70011;BME280;59543;37.950;-122.338;2022-07-15T00:41:38;101182.84;;;22.69;46.77
70011;BME280;59543;37.950;-122.338;2022-07-15T00:44:05;101177.53;;;22.16;47.00
70011;BME280;59543;37.950;-122.338;2022-07-15T00:46:31;101172.91;;;22.30;47.75
70011;BME280;59543;37.950;-122.338;2022-07-15T00:48:59;101162.81;;;22.24;48.03
70011;BME280;59543;37.950;-122.338;2022-07-15T00:51:26;101161.31;;;22.08;48.51
70011;BME280;59543;37.950;-122.338;2022-07-15T00:53:54;101156.28;;;22.18;47.65
70011;BME280;59543;37.950;-122.338;2022-07-15T00:56:23;101162.53;;;22.32;47.47
70011;BME280;59543;37.950;-122.338;2022-07-15T00:58:52;101159.81;;;22.32;48.81
70011;BME280;59543;37.950;-122.338;2022-07-15T01:01:19;101158.97;;;22.31;47.71
70011;BME280;59543;37.950;-122.338;2022-07-15T01:03:50;101158.59;;;22.14;48.59
70011;BME280;59543;37.950;-122.338;2022-07-15T01:06:17;101152.97;;;21.56;48.70
70011;BME280;59543;37.950;-122.338;2022-07-15T01:08:43;101157.41;;;21.71;49.73
70011;BME280;59543;37.950;-122.338;2022-07-15T01:11:09;101157.78;;;21.08;50.29
70011;BME280;59543;37.950;-122.338;2022-07-15T01:13:36;101158.63;;;21.35;49.97
70011;BME280;59543;37.950;-122.338;2022-07-15T01:16:04;101151.50;;;21.47;49.77
70011;BME280;59543;37.950;-122.338;2022-07-15T01:18:30;101157.38;;;21.31;50.08
70011;BME280;59543;37.950;-122.338;2022-07-15T01:20:56;101144.56;;;21.38;49.56
70011;BME280;59543;37.950;-122.338;2022-07-15T01:23:23;101147.53;;;21.43;50.16
70011;BME280;59543;37.950;-122.338;2022-07-15T01:25:50;101148.16;;;21.58;49.51
70011;BME280;59543;37.950;-122.338;2022-07-15T01:28:19;101141.41;;;21.41;50.12
70011;BME280;59543;37.950;-122.338;2022-07-15T01:30:45;101147.91;;;21.60;50.13
70011;BME280;59543;37.950;-122.338;2022-07-15T01:33:11;101142.47;;;21.46;50.20
70011;BME280;59543;37.950;-122.338;2022-07-15T01:35:38;101139.06;;;21.31;49.79
70011;BME280;59543;37.950;-122.338;2022-07-15T01:38:04;101145.81;;;21.62;50.19
70011;BME280;59543;37.950;-122.338;2022-07-15T01:40:30;101143.09;;;21.42;50.09
70011;BME280;59543;37.950;-122.338;2022-07-15T01:42:56;101142.88;;;21.50;49.25
70011;BME280;59543;37.950;-122.338;2022-07-15T01:45:23;101137.59;;;21.75;49.07
70011;BME280;59543;37.950;-122.338;2022-07-15T01:47:50;101142.69;;;21.52;49.42
70011;BME280;59543;37.950;-122.338;2022-07-15T01:50:18;101138.25;;;21.44;49.54
70011;BME280;59543;37.950;-122.338;2022-07-15T01:52:45;101141.22;;;21.49;50.02
70011;BME280;59543;37.950;-122.338;2022-07-15T01:55:12;101136.75;;;21.35;49.83
70011;BME280;59543;37.950;-122.338;2022-07-15T01:57:38;101131.28;;;21.28;49.90
70011;BME280;59543;37.950;-122.338;2022-07-15T02:00:06;101139.75;;;21.40;49.52
70011;BME280;59543;37.950;-122.338;2022-07-15T02:02:33;101130.44;;;21.21;49.95
70011;BME280;59543;37.950;-122.338;2022-07-15T02:04:59;101138.63;;;21.14;49.80
70011;BME280;59543;37.950;-122.338;2022-07-15T02:07:25;101143.53;;;21.45;49.83
70011;BME280;59543;37.950;-122.338;2022-07-15T02:09:51;101148.53;;;21.68;48.91
70011;BME280;59543;37.950;-122.338;2022-07-15T02:12:18;101142.22;;;21.75;48.34
70011;BME280;59543;37.950;-122.338;2022-07-15T02:14:44;101145.13;;;22.00;47.94
70011;BME280;59543;37.950;-122.338;2022-07-15T02:17:10;101140.63;;;22.39;47.26
70011;BME280;59543;37.950;-122.338;2022-07-15T02:19:36;101140.00;;;22.75;45.85
70011;BME280;59543;37.950;-122.338;2022-07-15T02:22:02;101132.06;;;22.98;45.32
70011;BME280;59543;37.950;-122.338;2022-07-15T02:24:29;101140.25;;;23.05;45.38
70011;BME280;59543;37.950;-122.338;2022-07-15T02:26:55;101129.75;;;23.02;45.14
70011;BME280;59543;37.950;-122.338;2022-07-15T02:29:21;101132.59;;;23.14;44.90
70011;BME280;59543;37.950;-122.338;2022-07-15T02:31:47;101144.50;;;23.01;45.51
70011;BME280;59543;37.950;-122.338;2022-07-15T02:34:13;101142.13;;;23.11;44.55
70011;BME280;59543;37.950;-122.338;2022-07-15T02:36:42;101141.59;;;22.89;44.83
70011;BME280;59543;37.950;-122.338;2022-07-15T02:39:09;101143.53;;;22.82;45.42
70011;BME280;59543;37.950;-122.338;2022-07-15T02:41:35;101151.81;;;23.14;45.10
70011;BME280;59543;37.950;-122.338;2022-07-15T02:44:01;101147.78;;;22.78;45.89
70011;BME280;59543;37.950;-122.338;2022-07-15T02:46:29;101145.97;;;22.58;46.05
70011;BME280;59543;37.950;-122.338;2022-07-15T02:48:55;101143.56;;;22.37;46.07
70011;BME280;59543;37.950;-122.338;2022-07-15T02:51:22;101143.88;;;21.96;47.17
70011;BME280;59543;37.950;-122.338;2022-07-15T02:53:48;101154.00;;;21.88;47.80
70011;BME280;59543;37.950;-122.338;2022-07-15T02:56:14;101153.41;;;21.40;48.31
70011;BME280;59543;37.950;-122.338;2022-07-15T02:58:41;101151.41;;;20.87;49.94
70011;BME280;59543;37.950;-122.338;2022-07-15T03:01:07;101155.91;;;20.47;51.05
70011;BME280;59543;37.950;-122.338;2022-07-15T03:03:33;101159.28;;;20.07;51.84
70011;BME280;59543;37.950;-122.338;2022-07-15T03:05:59;101167.97;;;19.83;52.68
70011;BME280;59543;37.950;-122.338;2022-07-15T03:08:26;101166.34;;;19.67;53.30
70011;BME280;59543;37.950;-122.338;2022-07-15T03:10:52;101162.75;;;19.38;54.02
70011;BME280;59543;37.950;-122.338;2022-07-15T03:13:18;101156.78;;;19.28;53.97
70011;BME280;59543;37.950;-122.338;2022-07-15T03:15:45;101166.91;;;19.13;54.40
70011;BME280;59543;37.950;-122.338;2022-07-15T03:18:11;101163.53;;;18.89;55.46
70011;BME280;59543;37.950;-122.338;2022-07-15T03:20:38;101157.31;;;18.59;56.30
70011;BME280;59543;37.950;-122.338;2022-07-15T03:23:04;101155.00;;;18.41;57.19
70011;BME280;59543;37.950;-122.338;2022-07-15T03:25:30;101160.00;;;18.08;57.69
70011;BME280;59543;37.950;-122.338;2022-07-15T03:27:56;101163.19;;;18.12;57.07
70011;BME280;59543;37.950;-122.338;2022-07-15T03:30:22;101157.47;;;18.07;57.20
70011;BME280;59543;37.950;-122.338;2022-07-15T03:32:48;101150.78;;;18.09;56.95
70011;BME280;59543;37.950;-122.338;2022-07-15T03:35:15;101167.50;;;18.06;57.43
70011;BME280;59543;37.950;-122.338;2022-07-15T03:37:41;101177.44;;;17.84;58.24
70011;BME280;59543;37.950;-122.338;2022-07-15T03:40:08;101181.38;;;17.81;58.75
70011;BME280;59543;37.950;-122.338;2022-07-15T03:42:34;101176.13;;;17.80;58.37
70011;BME280;59543;37.950;-122.338;2022-07-15T03:45:00;101177.41;;;17.69;58.50
70011;BME280;59543;37.950;-122.338;2022-07-15T03:47:27;101171.38;;;17.74;58.39
70011;BME280;59543;37.950;-122.338;2022-07-15T03:49:55;101174.00;;;17.67;58.88
70011;BME280;59543;37.950;-122.338;2022-07-15T03:52:21;101165.94;;;17.74;58.95
70011;BME280;59543;37.950;-122.338;2022-07-15T03:54:47;101172.06;;;17.76;58.67
70011;BME280;59543;37.950;-122.338;2022-07-15T03:57:13;101181.84;;;17.47;59.49
70011;BME280;59543;37.950;-122.338;2022-07-15T03:59:39;101185.19;;;17.34;59.87
70011;BME280;59543;37.950;-122.338;2022-07-15T04:02:06;101183.41;;;17.42;59.36
70011;BME280;59543;37.950;-122.338;2022-07-15T04:04:32;101171.47;;;17.28;59.63
70011;BME280;59543;37.950;-122.338;2022-07-15T04:06:58;101181.94;;;17.16;60.04
70011;BME280;59543;37.950;-122.338;2022-07-15T04:09:24;101192.72;;;17.01;60.74
70011;BME280;59543;37.950;-122.338;2022-07-15T04:11:51;101187.47;;;17.00;60.87
70011;BME280;59543;37.950;-122.338;2022-07-15T04:14:17;101190.91;;;16.94;61.15
70011;BME280;59543;37.950;-122.338;2022-07-15T04:16:44;101202.56;;;16.79;61.46
70011;BME280;59543;37.950;-122.338;2022-07-15T04:19:10;101206.13;;;16.80;61.50
70011;BME280;59543;37.950;-122.338;2022-07-15T04:21:36;101200.13;;;16.84;61.76
70011;BME280;59543;37.950;-122.338;2022-07-15T04:24:03;101206.88;;;16.57;62.54
70011;BME280;59543;37.950;-122.338;2022-07-15T04:26:29;101212.25;;;16.65;62.71
70011;BME280;59543;37.950;-122.338;2022-07-15T04:28:56;101213.47;;;16.63;62.72
70011;BME280;59543;37.950;-122.338;2022-07-15T04:31:22;101218.75;;;16.56;62.98
70011;BME280;59543;37.950;-122.338;2022-07-15T04:33:49;101220.63;;;16.56;63.06
70011;BME280;59543;37.950;-122.338;2022-07-15T04:36:16;101226.22;;;16.54;63.31
70011;BME280;59543;37.950;-122.338;2022-07-15T04:38:42;101223.56;;;16.46;63.45
70011;BME280;59543;37.950;-122.338;2022-07-15T04:41:09;101222.91;;;16.36;63.63
70011;BME280;59543;37.950;-122.338;2022-07-15T04:43:35;101228.19;;;16.29;63.75
70011;BME280;59543;37.950;-122.338;2022-07-15T04:46:01;101223.63;;;16.21;63.72
70011;BME280;59543;37.950;-122.338;2022-07-15T04:48:27;101221.59;;;16.15;63.98
70011;BME280;59543;37.950;-122.338;2022-07-15T04:51:12;101223.19;;;16.10;64.14
70011;BME280;59543;37.950;-122.338;2022-07-15T04:53:39;101222.47;;;16.16;63.96
70011;BME280;59543;37.950;-122.338;2022-07-15T04:56:05;101235.56;;;16.04;64.39
70011;BME280;59543;37.950;-122.338;2022-07-15T04:58:32;101229.13;;;15.97;64.56
70011;BME280;59543;37.950;-122.338;2022-07-15T05:00:58;101239.81;;;15.98;64.53
70011;BME280;59543;37.950;-122.338;2022-07-15T05:03:24;101241.03;;;15.80;65.04
70011;BME280;59543;37.950;-122.338;2022-07-15T05:05:50;101245.44;;;15.89;64.89
70011;BME280;59543;37.950;-122.338;2022-07-15T05:08:17;101231.88;;;15.81;65.05
70011;BME280;59543;37.950;-122.338;2022-07-15T05:10:43;101243.06;;;15.77;65.30
70011;BME280;59543;37.950;-122.338;2022-07-15T05:13:09;101241.53;;;15.83;65.16
70011;BME280;59543;37.950;-122.338;2022-07-15T05:15:35;101253.06;;;15.77;65.22
70011;BME280;59543;37.950;-122.338;2022-07-15T05:18:02;101257.94;;;15.57;66.00
70011;BME280;59543;37.950;-122.338;2022-07-15T05:20:28;101244.56;;;15.55;66.03
70011;BME280;59543;37.950;-122.338;2022-07-15T05:22:54;101246.06;;;15.58;65.87
70011;BME280;59543;37.950;-122.338;2022-07-15T05:25:21;101250.34;;;15.52;66.15
70011;BME280;59543;37.950;-122.338;2022-07-15T05:27:47;101266.09;;;15.41;66.40
70011;BME280;59543;37.950;-122.338;2022-07-15T05:30:13;101257.09;;;15.48;66.14
70011;BME280;59543;37.950;-122.338;2022-07-15T05:32:42;101266.91;;;15.33;66.35
70011;BME280;59543;37.950;-122.338;2022-07-15T05:35:08;101267.59;;;15.35;66.74
70011;BME280;59543;37.950;-122.338;2022-07-15T05:37:38;101265.19;;;15.24;67.14
70011;BME280;59543;37.950;-122.338;2022-07-15T05:40:08;101266.38;;;15.21;67.23
70011;BME280;59543;37.950;-122.338;2022-07-15T05:42:35;101264.19;;;15.25;66.76
70011;BME280;59543;37.950;-122.338;2022-07-15T05:45:01;101270.97;;;15.21;67.07
70011;BME280;59543;37.950;-122.338;2022-07-15T05:47:28;101289.69;;;14.98;67.81
70011;BME280;59543;37.950;-122.338;2022-07-15T05:49:54;101278.19;;;15.04;67.79
70011;BME280;59543;37.950;-122.338;2022-07-15T05:52:20;101292.38;;;14.98;67.97
70011;BME280;59543;37.950;-122.338;2022-07-15T05:54:47;101292.38;;;14.98;67.97
70011;BME280;59543;37.950;-122.338;2022-07-15T05:57:13;101292.72;;;14.86;68.37
70011;BME280;59543;37.950;-122.338;2022-07-15T05:59:39;101282.22;;;14.92;67.93
70011;BME280;59543;37.950;-122.338;2022-07-15T06:02:06;101276.78;;;14.92;67.95
70011;BME280;59543;37.950;-122.338;2022-07-15T06:04:32;101268.34;;;14.86;67.94
70011;BME280;59543;37.950;-122.338;2022-07-15T06:06:58;101278.84;;;14.98;67.86
70011;BME280;59543;37.950;-122.338;2022-07-15T06:09:24;101285.56;;;14.85;68.34
70011;BME280;59543;37.950;-122.338;2022-07-15T06:11:51;101283.72;;;14.86;68.44
70011;BME280;59543;37.950;-122.338;2022-07-15T06:14:17;101287.13;;;14.88;68.30
70011;BME280;59543;37.950;-122.338;2022-07-15T06:16:43;101279.59;;;14.74;68.67
70011;BME280;59543;37.950;-122.338;2022-07-15T06:19:09;101278.75;;;14.73;68.59
70011;BME280;59543;37.950;-122.338;2022-07-15T06:21:36;101286.88;;;14.73;68.85
70011;BME280;59543;37.950;-122.338;2022-07-15T06:24:03;101293.00;;;14.75;68.76
70011;BME280;59543;37.950;-122.338;2022-07-15T06:26:29;101289.88;;;14.62;69.29
70011;BME280;59543;37.950;-122.338;2022-07-15T06:28:55;101284.63;;;14.60;69.24
70011;BME280;59543;37.950;-122.338;2022-07-15T06:31:22;101281.41;;;14.57;69.71
70011;BME280;59543;37.950;-122.338;2022-07-15T06:33:48;101281.75;;;14.54;69.66
70011;BME280;59543;37.950;-122.338;2022-07-15T06:36:15;101279.56;;;14.57;69.77
70011;BME280;59543;37.950;-122.338;2022-07-15T06:38:41;101277.00;;;14.56;69.79
70011;BME280;59543;37.950;-122.338;2022-07-15T06:41:07;101277.88;;;14.56;69.84
70011;BME280;59543;37.950;-122.338;2022-07-15T06:43:33;101277.09;;;14.46;70.52
70011;BME280;59543;37.950;-122.338;2022-07-15T06:46:00;101278.25;;;14.44;70.14
70011;BME280;59543;37.950;-122.338;2022-07-15T06:48:26;101283.25;;;14.30;70.43
70011;BME280;59543;37.950;-122.338;2022-07-15T06:50:52;101280.06;;;14.35;70.03
70011;BME280;59543;37.950;-122.338;2022-07-15T06:53:18;101281.34;;;14.23;70.41
70011;BME280;59543;37.950;-122.338;2022-07-15T06:55:45;101291.53;;;14.29;70.38
70011;BME280;59543;37.950;-122.338;2022-07-15T06:58:12;101288.94;;;14.19;70.79
70011;BME280;59543;37.950;-122.338;2022-07-15T07:00:38;101280.69;;;14.29;70.98
70011;BME280;59543;37.950;-122.338;2022-07-15T07:03:04;101274.94;;;14.24;71.57
70011;BME280;59543;37.950;-122.338;2022-07-15T07:05:30;101281.56;;;14.29;71.14
70011;BME280;59543;37.950;-122.338;2022-07-15T07:07:56;101281.25;;;14.32;71.17
70011;BME280;59543;37.950;-122.338;2022-07-15T07:10:24;101290.88;;;14.35;71.34
70011;BME280;59543;37.950;-122.338;2022-07-15T07:12:52;101284.94;;;14.31;71.33
70011;BME280;59543;37.950;-122.338;2022-07-15T07:15:18;101289.72;;;14.37;70.96
70011;BME280;59543;37.950;-122.338;2022-07-15T07:17:46;101286.28;;;14.27;71.35
70011;BME280;59543;37.950;-122.338;2022-07-15T07:20:13;101287.00;;;14.29;71.56
70011;BME280;59543;37.950;-122.338;2022-07-15T07:22:39;101292.22;;;14.31;71.99
70011;BME280;59543;37.950;-122.338;2022-07-15T07:25:05;101283.25;;;14.30;71.90
70011;BME280;59543;37.950;-122.338;2022-07-15T07:27:32;101291.53;;;14.29;72.12
70011;BME280;59543;37.950;-122.338;2022-07-15T07:29:59;101281.13;;;14.16;72.93
70011;BME280;59543;37.950;-122.338;2022-07-15T07:32:27;101293.38;;;14.20;72.25
70011;BME280;59543;37.950;-122.338;2022-07-15T07:34:53;101289.97;;;14.18;72.48
70011;BME280;59543;37.950;-122.338;2022-07-15T07:37:20;101280.09;;;14.09;72.88
70011;BME280;59543;37.950;-122.338;2022-07-15T07:39:46;101282.09;;;14.07;72.70
70011;BME280;59543;37.950;-122.338;2022-07-15T07:42:12;101280.41;;;14.06;73.03
70011;BME280;59543;37.950;-122.338;2022-07-15T07:44:39;101279.25;;;14.08;72.98
70011;BME280;59543;37.950;-122.338;2022-07-15T07:47:05;101282.63;;;13.84;74.28
70011;BME280;59543;37.950;-122.338;2022-07-15T07:49:31;101287.28;;;14.00;73.59
70011;BME280;59543;37.950;-122.338;2022-07-15T07:51:57;101279.72;;;14.04;73.29
70011;BME280;59543;37.950;-122.338;2022-07-15T07:54:24;101286.91;;;13.95;73.67
70011;BME280;59543;37.950;-122.338;2022-07-15T07:56:50;101293.66;;;13.91;73.80
70011;BME280;59543;37.950;-122.338;2022-07-15T07:59:16;101294.56;;;14.00;73.47
70011;BME280;59543;37.950;-122.338;2022-07-15T08:01:43;101288.38;;;13.89;74.00
70011;BME280;59543;37.950;-122.338;2022-07-15T08:04:09;101296.19;;;13.92;73.76
70011;BME280;59543;37.950;-122.338;2022-07-15T08:06:36;101294.50;;;13.91;73.95
70011;BME280;59543;37.950;-122.338;2022-07-15T08:09:04;101289.63;;;13.95;73.43
70011;BME280;59543;37.950;-122.338;2022-07-15T08:11:31;101294.75;;;13.80;73.74
70011;BME280;59543;37.950;-122.338;2022-07-15T08:13:57;101291.72;;;13.83;73.73
70011;BME280;59543;37.950;-122.338;2022-07-15T08:16:23;101289.28;;;13.72;74.22
70011;BME280;59543;37.950;-122.338;2022-07-15T08:18:49;101297.75;;;13.77;73.92
70011;BME280;59543;37.950;-122.338;2022-07-15T08:21:16;101286.72;;;13.70;74.05
70011;BME280;59543;37.950;-122.338;2022-07-15T08:23:42;101293.59;;;13.65;74.34
70011;BME280;59543;37.950;-122.338;2022-07-15T08:26:08;101296.63;;;13.62;74.46
70011;BME280;59543;37.950;-122.338;2022-07-15T08:28:36;101291.75;;;13.65;74.35
70011;BME280;59543;37.950;-122.338;2022-07-15T08:31:02;101289.81;;;13.58;74.93
70011;BME280;59543;37.950;-122.338;2022-07-15T08:33:29;101288.38;;;13.63;74.01
70011;BME280;59543;37.950;-122.338;2022-07-15T08:35:55;101293.38;;;13.58;74.30
70011;BME280;59543;37.950;-122.338;2022-07-15T08:38:22;101297.22;;;13.56;74.61
70011;BME280;59543;37.950;-122.338;2022-07-15T08:40:48;101295.38;;;13.56;74.52
70011;BME280;59543;37.950;-122.338;2022-07-15T08:43:15;101302.25;;;13.50;74.65
70011;BME280;59543;37.950;-122.338;2022-07-15T08:45:41;101294.75;;;13.44;74.96
70011;BME280;59543;37.950;-122.338;2022-07-15T08:48:10;101297.75;;;13.41;75.26
70011;BME280;59543;37.950;-122.338;2022-07-15T08:50:37;101292.66;;;13.38;75.59
70011;BME280;59543;37.950;-122.338;2022-07-15T08:53:03;101288.69;;;13.42;75.11
70011;BME280;59543;37.950;-122.338;2022-07-15T08:55:30;101288.41;;;13.54;74.94
70011;BME280;59543;37.950;-122.338;2022-07-15T08:57:57;101292.84;;;13.55;75.04
70011;BME280;59543;37.950;-122.338;2022-07-15T09:00:25;101290.75;;;13.66;74.66
70011;BME280;59543;37.950;-122.338;2022-07-15T09:03:01;101281.41;;;13.61;74.71
70011;BME280;59543;37.950;-122.338;2022-07-15T09:05:34;101283.19;;;13.52;74.79
70011;BME280;59543;37.950;-122.338;2022-07-15T09:08:16;101281.63;;;13.49;74.88
70011;BME280;59543;37.950;-122.338;2022-07-15T09:10:54;101275.22;;;13.50;74.64
70011;BME280;59543;37.950;-122.338;2022-07-15T09:15:52;101280.34;;;13.36;74.71
70011;BME280;59543;37.950;-122.338;2022-07-15T09:18:22;101276.28;;;13.22;75.27
70011;BME280;59543;37.950;-122.338;2022-07-15T09:20:49;101287.09;;;13.22;75.40
70011;BME280;59543;37.950;-122.338;2022-07-15T09:23:19;101274.41;;;13.22;75.49
70011;BME280;59543;37.950;-122.338;2022-07-15T09:26:00;101282.59;;;13.13;75.77
70011;BME280;59543;37.950;-122.338;2022-07-15T09:28:39;101290.09;;;13.19;75.24
70011;BME280;59543;37.950;-122.338;2022-07-15T09:31:05;101292.22;;;13.25;75.03
70011;BME280;59543;37.950;-122.338;2022-07-15T09:33:57;101288.69;;;13.42;74.86
70011;BME280;59543;37.950;-122.338;2022-07-15T09:36:26;101294.13;;;13.33;75.54
70011;BME280;59543;37.950;-122.338;2022-07-15T09:39:04;101290.69;;;13.40;75.50
70011;BME280;59543;37.950;-122.338;2022-07-15T09:41:37;101290.75;;;13.48;74.80
70011;BME280;59543;37.950;-122.338;2022-07-15T09:44:21;101294.00;;;13.34;75.32
70011;BME280;59543;37.950;-122.338;2022-07-15T09:46:58;101292.66;;;13.38;75.34
70011;BME280;59543;37.950;-122.338;2022-07-15T09:54:30;101294.84;;;13.53;73.96
70011;BME280;59543;37.950;-122.338;2022-07-15T09:57:02;101296.53;;;13.54;73.74
70011;BME280;59543;37.950;-122.338;2022-07-15T09:59:29;101301.47;;;13.40;74.06
70011;BME280;59543;37.950;-122.338;2022-07-15T10:01:56;101292.00;;;13.36;74.17
70011;BME280;59543;37.950;-122.338;2022-07-15T10:04:25;101303.78;;;13.35;74.50
70011;BME280;59543;37.950;-122.338;2022-07-15T10:06:53;101303.47;;;13.38;74.43
70011;BME280;59543;37.950;-122.338;2022-07-15T10:09:24;101301.19;;;13.43;73.89
70011;BME280;59543;37.950;-122.338;2022-07-15T10:12:03;101305.56;;;13.26;74.51
70011;BME280;59543;37.950;-122.338;2022-07-15T10:15:04;101307.50;;;13.34;74.77
70011;BME280;59543;37.950;-122.338;2022-07-15T10:17:46;101317.69;;;13.40;74.60
70011;BME280;59543;37.950;-122.338;2022-07-15T10:29:07;101312.53;;;13.47;73.84
70011;BME280;59543;37.950;-122.338;2022-07-15T10:31:35;101312.06;;;13.34;74.65
70011;BME280;59543;37.950;-122.338;2022-07-15T10:39:21;101310.59;;;13.39;74.92
70011;BME280;59543;37.950;-122.338;2022-07-15T10:44:18;101314.25;;;13.48;75.13
70011;BME280;59543;37.950;-122.338;2022-07-15T10:46:44;101310.00;;;13.45;74.79
70011;BME280;59543;37.950;-122.338;2022-07-15T10:54:04;101309.28;;;13.43;74.36
70011;BME280;59543;37.950;-122.338;2022-07-15T10:56:42;101311.69;;;13.46;74.56
70011;BME280;59543;37.950;-122.338;2022-07-15T11:01:42;101306.78;;;13.32;74.97
70011;BME280;59543;37.950;-122.338;2022-07-15T11:12:11;101313.75;;;13.35;74.92
70011;BME280;59543;37.950;-122.338;2022-07-15T11:15:22;101318.44;;;13.33;75.17
70011;BME280;59543;37.950;-122.338;2022-07-15T11:17:52;101315.47;;;13.36;75.40
70011;BME280;59543;37.950;-122.338;2022-07-15T11:20:24;101318.94;;;13.46;74.86
70011;BME280;59543;37.950;-122.338;2022-07-15T11:22:53;101318.84;;;13.38;74.93
70011;BME280;59543;37.950;-122.338;2022-07-15T11:25:24;101330.50;;;13.38;75.19
70011;BME280;59543;37.950;-122.338;2022-07-15T11:30:38;101329.66;;;13.38;75.45
70011;BME280;59543;37.950;-122.338;2022-07-15T11:33:08;101324.56;;;13.35;75.55
70011;BME280;59543;37.950;-122.338;2022-07-15T11:35:56;101326.56;;;13.33;75.82
70011;BME280;59543;37.950;-122.338;2022-07-15T11:38:28;101326.94;;;13.38;75.45
70011;BME280;59543;37.950;-122.338;2022-07-15T11:41:00;101325.97;;;13.39;75.43
70011;BME280;59543;37.950;-122.338;2022-07-15T11:43:49;101327.16;;;13.26;75.75
70011;BME280;59543;37.950;-122.338;2022-07-15T11:46:44;101325.25;;;13.37;75.49
70011;BME280;59543;37.950;-122.338;2022-07-15T11:49:10;101326.50;;;13.42;75.01
70011;BME280;59543;37.950;-122.338;2022-07-15T11:51:36;101331.91;;;13.42;74.91
70011;BME280;59543;37.950;-122.338;2022-07-15T11:54:02;101329.25;;;13.33;75.24
70011;BME280;59543;37.950;-122.338;2022-07-15T11:56:29;101333.59;;;13.43;74.43
70011;BME280;59543;37.950;-122.338;2022-07-15T11:58:57;101327.28;;;13.53;74.99
70011;BME280;59543;37.950;-122.338;2022-07-15T12:01:26;101332.38;;;13.56;74.78
70011;BME280;59543;37.950;-122.338;2022-07-15T12:03:57;101330.91;;;13.61;74.33
70011;BME280;59543;37.950;-122.338;2022-07-15T12:06:31;101336.94;;;13.55;74.83
70011;BME280;59543;37.950;-122.338;2022-07-15T12:09:00;101342.13;;;13.48;75.09
70011;BME280;59543;37.950;-122.338;2022-07-15T12:11:38;101334.00;;;13.48;75.10
70011;BME280;59543;37.950;-122.338;2022-07-15T12:14:10;101342.34;;;13.55;75.05
70011;BME280;59543;37.950;-122.338;2022-07-15T12:21:39;101343.41;;;13.44;75.98
70011;BME280;59543;37.950;-122.338;2022-07-15T12:24:14;101336.72;;;13.48;75.75
70011;BME280;59543;37.950;-122.338;2022-07-15T12:29:17;101351.81;;;13.59;75.60
70011;BME280;59543;37.950;-122.338;2022-07-15T12:31:55;101344.28;;;13.63;75.81
70011;BME280;59543;37.950;-122.338;2022-07-15T12:34:22;101354.41;;;13.61;75.79
70011;BME280;59543;37.950;-122.338;2022-07-15T12:37:05;101358.78;;;13.62;75.47
70011;BME280;59543;37.950;-122.338;2022-07-15T12:39:31;101359.53;;;13.36;76.70
70011;BME280;59543;37.950;-122.338;2022-07-15T12:42:02;101350.91;;;13.50;76.03
70011;BME280;59543;37.950;-122.338;2022-07-15T12:44:31;101362.19;;;13.64;75.60
70011;BME280;59543;37.950;-122.338;2022-07-15T12:47:00;101360.78;;;13.60;75.79
70011;BME280;59543;37.950;-122.338;2022-07-15T12:52:28;101363.88;;;13.47;76.17
70011;BME280;59543;37.950;-122.338;2022-07-15T12:54:57;101360.56;;;13.53;75.87
70011;BME280;59543;37.950;-122.338;2022-07-15T13:02:16;101376.22;;;13.49;76.27
70011;BME280;59543;37.950;-122.338;2022-07-15T13:04:43;101376.22;;;13.49;75.79
70011;BME280;59543;37.950;-122.338;2022-07-15T13:07:09;101368.84;;;13.52;76.16
70011;BME280;59543;37.950;-122.338;2022-07-15T13:09:35;101381.81;;;13.48;76.39
70011;BME280;59543;37.950;-122.338;2022-07-15T13:12:01;101373.31;;;13.61;75.72
70011;BME280;59543;37.950;-122.338;2022-07-15T13:14:28;101378.22;;;13.47;76.50
70011;BME280;59543;37.950;-122.338;2022-07-15T13:16:54;101379.94;;;13.48;76.71
70011;BME280;59543;37.950;-122.338;2022-07-15T13:19:20;101382.47;;;13.50;76.42
70011;BME280;59543;37.950;-122.338;2022-07-15T13:21:46;101382.19;;;13.53;76.69
70011;BME280;59543;37.950;-122.338;2022-07-15T13:24:13;101379.72;;;13.42;76.91